Time;durP1;ratioP1;P1;durP2;ratioP2;P2;SDS_P1;SDS_P2;PMS_P1;PMS_P2;Temp;Humidity;BMP_temperature;BMP_pressure;BME280_temperature;BME280_humidity;BME280_pressure;Samples;Min_cycle;Max_cycle;Signal;HPM_P1;HPM_P2
2021/12/08 00:00:17;;;;;;;3.07;0.43;;;3.10;99.90;;;;;;5077582;28;20868;-71
2021/12/08 00:02:45;;;;;;;1.10;0.43;;;3.10;99.90;;;;;;5076599;28;20996;-71
2021/12/08 00:05:17;;;;;;;2.50;0.30;;;3.20;99.90;;;;;;5075350;28;20475;-72
2021/12/08 00:07:48;;;;;;;0.87;0.47;;;3.30;99.90;;;;;;5075730;28;20942;-71
2021/12/08 00:10:29;;;;;;;0.60;0.30;;;3.30;99.90;;;;;;5075172;28;20458;-72
2021/12/08 00:13:03;;;;;;;0.40;0.30;;;3.40;99.90;;;;;;5075751;28;20537;-71
2021/12/08 00:15:31;;;;;;;0.40;0.20;;;3.40;99.90;;;;;;5075979;28;20765;-71
2021/12/08 00:18:02;;;;;;;0.83;0.30;;;3.40;99.90;;;;;;5076609;28;20421;-71
2021/12/08 00:20:32;;;;;;;0.50;0.30;;;3.50;99.90;;;;;;5076302;28;20977;-71
2021/12/08 00:23:04;;;;;;;0.30;0.20;;;3.50;99.90;;;;;;5076181;28;20783;-71
2021/12/08 00:25:31;;;;;;;1.30;0.30;;;3.50;99.90;;;;;;5076871;28;20547;-71
2021/12/08 00:28:03;;;;;;;0.60;0.30;;;3.60;99.90;;;;;;5077428;28;20465;-71
2021/12/08 00:30:31;;;;;;;1.50;0.40;;;3.60;99.90;;;;;;5076589;28;20545;-71
2021/12/08 00:32:59;;;;;;;0.60;0.30;;;3.60;99.90;;;;;;5076830;28;20445;-71
2021/12/08 00:35:27;;;;;;;0.70;0.30;;;3.60;99.90;;;;;;5077404;28;20508;-72
2021/12/08 00:37:56;;;;;;;0.87;0.30;;;3.50;99.90;;;;;;5077437;28;20798;-71
2021/12/08 00:40:25;;;;;;;1.77;0.30;;;3.50;99.90;;;;;;5077009;28;20455;-71
2021/12/08 00:42:53;;;;;;;0.50;0.30;;;3.50;99.90;;;;;;5077457;28;20539;-71
2021/12/08 00:45:23;;;;;;;0.50;0.30;;;3.50;99.90;;;;;;5076972;28;20787;-71
2021/12/08 00:47:51;;;;;;;0.30;0.20;;;3.50;99.90;;;;;;5059095;28;20445;-71
2021/12/08 00:50:21;;;;;;;0.37;0.20;;;3.40;99.90;;;;;;5076049;28;20493;-70
2021/12/08 00:52:49;;;;;;;3.10;0.67;;;3.40;99.90;;;;;;5075522;28;20447;-71
2021/12/08 00:55:18;;;;;;;1.23;0.50;;;3.40;99.90;;;;;;5075503;28;20572;-70
2021/12/08 00:57:45;;;;;;;2.20;0.60;;;3.30;99.90;;;;;;5075782;28;20548;-71
2021/12/08 01:00:16;;;;;;;0.50;0.40;;;3.30;99.90;;;;;;5075042;28;20457;-71
2021/12/08 01:02:43;;;;;;;0.80;0.47;;;3.20;99.90;;;;;;5075430;28;20496;-71
2021/12/08 01:05:12;;;;;;;0.40;0.20;;;3.20;99.90;;;;;;5075523;28;20902;-71
2021/12/08 01:07:39;;;;;;;0.60;0.27;;;3.20;99.90;;;;;;5076945;28;20961;-71
2021/12/08 01:10:09;;;;;;;0.70;0.20;;;3.10;99.90;;;;;;5076975;28;20460;-71
2021/12/08 01:12:38;;;;;;;0.83;0.20;;;3.10;99.90;;;;;;5076552;28;20462;-71
2021/12/08 01:15:06;;;;;;;0.87;0.20;;;3.00;99.90;;;;;;5076482;28;20887;-70
2021/12/08 01:17:33;;;;;;;0.40;0.23;;;2.90;99.90;;;;;;5076464;28;20457;-71
2021/12/08 01:20:01;;;;;;;0.40;0.20;;;2.90;99.90;;;;;;5076404;28;20435;-70
2021/12/08 01:22:27;;;;;;;0.60;0.27;;;2.80;99.90;;;;;;5076296;28;20552;-71
2021/12/08 01:24:54;;;;;;;0.40;0.20;;;2.80;99.90;;;;;;5076537;28;20497;-70
2021/12/08 01:27:21;;;;;;;0.30;0.17;;;2.90;99.90;;;;;;5076310;28;20823;-71
2021/12/08 01:29:50;;;;;;;0.70;0.30;;;2.80;99.90;;;;;;5076033;28;20465;-71
2021/12/08 01:32:19;;;;;;;0.50;0.20;;;2.80;99.90;;;;;;5076397;28;20514;-70
2021/12/08 01:34:45;;;;;;;1.33;0.30;;;2.80;99.90;;;;;;5075955;28;20739;-70
2021/12/08 01:37:12;;;;;;;0.50;0.33;;;2.80;99.90;;;;;;5075577;28;20449;-70
2021/12/08 01:39:39;;;;;;;0.80;0.30;;;2.80;99.90;;;;;;5075880;28;20500;-71
2021/12/08 01:42:15;;;;;;;0.70;0.33;;;2.80;99.90;;;;;;5074956;28;20780;-71
2021/12/08 01:47:29;;;;;;;0.40;0.20;;;2.60;99.90;;;;;;5074662;28;20426;-71
2021/12/08 01:49:56;;;;;;;3.20;0.27;;;2.60;99.90;;;;;;5074801;28;20557;-71
2021/12/08 01:52:23;;;;;;;1.23;0.20;;;2.70;99.90;;;;;;5075190;28;20471;-71
2021/12/08 01:54:53;;;;;;;0.30;0.20;;;2.70;99.90;;;;;;5076042;28;20413;-71
2021/12/08 01:57:20;;;;;;;0.40;0.20;;;2.70;99.90;;;;;;5075227;28;20872;-71
2021/12/08 01:59:47;;;;;;;0.83;0.20;;;2.70;99.90;;;;;;5075119;28;20924;-71
2021/12/08 02:02:14;;;;;;;0.50;0.20;;;2.60;99.90;;;;;;5075101;28;20863;-70
2021/12/08 02:04:43;;;;;;;0.73;0.30;;;2.60;99.90;;;;;;5075857;28;20449;-70
2021/12/08 02:07:10;;;;;;;0.57;0.20;;;2.70;99.90;;;;;;5075711;28;20968;-70
2021/12/08 02:09:40;;;;;;;0.80;0.30;;;2.70;99.90;;;;;;5075375;28;20419;-70
2021/12/08 02:12:08;;;;;;;0.50;0.30;;;2.70;99.90;;;;;;5075763;28;20422;-70
2021/12/08 02:14:35;;;;;;;0.30;0.20;;;2.70;99.90;;;;;;5075643;28;20429;-70
2021/12/08 02:17:03;;;;;;;2.60;0.30;;;2.70;99.90;;;;;;5075823;28;20875;-70
2021/12/08 02:19:30;;;;;;;1.03;0.30;;;2.70;99.90;;;;;;5076003;28;20801;-70
2021/12/08 02:21:58;;;;;;;0.30;0.20;;;2.70;99.90;;;;;;5075339;28;21016;-70
2021/12/08 02:24:25;;;;;;;0.30;0.20;;;2.70;99.90;;;;;;5073888;28;20450;-70
2021/12/08 02:26:54;;;;;;;0.40;0.27;;;2.70;99.90;;;;;;5074840;28;20928;-70
2021/12/08 02:29:32;;;;;;;0.40;0.20;;;2.70;99.90;;;;;;5075459;28;20450;-71
2021/12/08 02:32:05;;;;;;;0.50;0.23;;;2.80;99.90;;;;;;5074625;28;20454;-71
2021/12/08 02:48:16;;;;;;;0.30;0.10;;;2.90;99.90;;;;;;5074867;28;20773;-70
2021/12/08 02:50:44;;;;;;;0.97;0.40;;;2.90;99.90;;;;;;5074855;28;20490;-70
2021/12/08 02:53:15;;;;;;;0.60;0.40;;;2.80;99.90;;;;;;5075460;28;20818;-70
2021/12/08 02:55:43;;;;;;;0.70;0.30;;;2.80;99.90;;;;;;5075648;28;20504;-71
2021/12/08 02:58:12;;;;;;;0.40;0.20;;;2.70;99.90;;;;;;5075424;28;20500;-71
2021/12/08 03:00:43;;;;;;;0.80;0.30;;;2.70;99.90;;;;;;5075453;28;20490;-71
2021/12/08 03:03:10;;;;;;;0.40;0.20;;;2.70;99.90;;;;;;5075953;28;20461;-71
2021/12/08 03:05:37;;;;;;;0.67;0.30;;;2.70;99.90;;;;;;5075280;28;20569;-71
2021/12/08 03:08:07;;;;;;;0.90;0.40;;;2.60;99.90;;;;;;5075049;28;20565;-70
2021/12/08 03:10:40;;;;;;;2.37;0.50;;;2.60;99.90;;;;;;5074435;28;20735;-70
2021/12/08 03:13:07;;;;;;;0.53;0.30;;;2.60;99.90;;;;;;5074951;28;20486;-70
2021/12/08 03:15:35;;;;;;;0.40;0.30;;;2.60;99.90;;;;;;5077623;28;20519;-70
2021/12/08 03:18:02;;;;;;;1.30;0.40;;;2.60;99.90;;;;;;5077849;28;20446;-70
2021/12/08 03:20:39;;;;;;;0.73;0.30;;;2.60;99.90;;;;;;5077888;28;20482;-70
2021/12/08 03:23:07;;;;;;;0.50;0.20;;;2.60;99.90;;;;;;5077306;28;20568;-70
2021/12/08 03:25:39;;;;;;;0.50;0.20;;;2.70;99.90;;;;;;5077251;28;20429;-70
2021/12/08 03:28:13;;;;;;;0.80;0.30;;;2.80;99.90;;;;;;5078641;28;20953;-71
2021/12/08 03:30:53;;;;;;;0.30;0.20;;;2.80;99.90;;;;;;5078541;28;20432;-70
2021/12/08 03:33:20;;;;;;;1.33;0.30;;;2.90;99.90;;;;;;5078374;28;20812;-70
2021/12/08 03:35:50;;;;;;;0.90;0.40;;;2.90;99.90;;;;;;5078553;28;20459;-70
2021/12/08 03:38:23;;;;;;;1.47;0.40;;;2.90;99.90;;;;;;5078746;28;20443;-71
2021/12/08 03:40:51;;;;;;;2.53;0.40;;;3.00;99.90;;;;;;5078181;28;20539;-70
2021/12/08 03:43:19;;;;;;;0.40;0.20;;;3.00;99.90;;;;;;5078359;28;20555;-70
2021/12/08 03:45:49;;;;;;;0.40;0.30;;;3.00;99.90;;;;;;5078873;28;20490;-71
2021/12/08 03:48:23;;;;;;;1.70;0.40;;;3.00;99.90;;;;;;5078173;28;20486;-70
2021/12/08 03:50:50;;;;;;;0.30;0.20;;;3.00;99.90;;;;;;5076898;28;20458;-71
2021/12/08 03:53:17;;;;;;;0.40;0.30;;;3.00;99.90;;;;;;5077400;28;20936;-70
2021/12/08 03:55:47;;;;;;;0.70;0.40;;;3.00;99.90;;;;;;5076949;28;20544;-70
2021/12/08 03:58:17;;;;;;;0.30;0.20;;;3.10;99.90;;;;;;5077159;28;20461;-71
2021/12/08 04:00:47;;;;;;;0.50;0.30;;;3.00;99.90;;;;;;5077143;28;20537;-70
2021/12/08 04:03:17;;;;;;;0.60;0.30;;;3.00;99.90;;;;;;5076828;28;20568;-70
2021/12/08 04:05:52;;;;;;;2.50;0.33;;;3.00;99.90;;;;;;5077894;28;20856;-70
2021/12/08 04:08:29;;;;;;;0.70;0.40;;;3.10;99.90;;;;;;5077954;28;20755;-70
2021/12/08 04:10:58;;;;;;;1.10;0.40;;;3.10;99.90;;;;;;5077514;28;20539;-70
2021/12/08 04:13:32;;;;;;;0.40;0.20;;;3.10;99.90;;;;;;5076278;28;20901;-70
2021/12/08 04:15:59;;;;;;;2.30;0.50;;;3.10;99.90;;;;;;5077809;28;20452;-70
2021/12/08 04:18:26;;;;;;;1.17;0.33;;;3.10;99.90;;;;;;5077382;28;20460;-70
2021/12/08 04:20:57;;;;;;;0.93;0.40;;;3.10;99.90;;;;;;5077327;28;20545;-70
2021/12/08 04:23:26;;;;;;;0.63;0.47;;;3.20;99.90;;;;;;5076969;28;20584;-70
2021/12/08 04:26:00;;;;;;;0.50;0.40;;;3.20;99.90;;;;;;5075476;28;20679;-71
2021/12/08 04:28:34;;;;;;;2.47;0.50;;;3.20;99.90;;;;;;5076234;28;20494;-71
2021/12/08 04:31:12;;;;;;;0.70;0.30;;;3.20;99.90;;;;;;5076963;28;20516;-71
2021/12/08 04:33:40;;;;;;;0.50;0.40;;;3.20;99.90;;;;;;5076881;28;20447;-71
2021/12/08 04:36:12;;;;;;;0.90;0.50;;;3.20;99.90;;;;;;5077083;28;20464;-70
2021/12/08 04:38:48;;;;;;;0.60;0.40;;;3.30;99.90;;;;;;5076850;28;20425;-71
2021/12/08 04:41:19;;;;;;;1.07;0.37;;;3.30;99.90;;;;;;5076901;28;20922;-70
2021/12/08 04:43:59;;;;;;;0.63;0.40;;;3.40;99.90;;;;;;5076371;28;20467;-70
2021/12/08 04:46:46;;;;;;;0.40;0.30;;;3.40;99.90;;;;;;5077573;28;20425;-70
2021/12/08 04:49:32;;;;;;;1.90;0.30;;;3.40;99.90;;;;;;5076988;28;20894;-70
2021/12/08 04:52:06;;;;;;;0.60;0.40;;;3.40;99.90;;;;;;5076974;28;20463;-70
2021/12/08 05:00:40;;;;;;;0.90;0.37;;;3.50;99.90;;;;;;5074340;28;20986;-70
2021/12/08 05:03:24;;;;;;;1.03;0.50;;;3.50;99.90;;;;;;5074891;28;20520;-70
2021/12/08 05:06:06;;;;;;;1.03;0.37;;;3.50;99.90;;;;;;5074417;28;20846;-71
2021/12/08 05:08:41;;;;;;;0.57;0.40;;;3.50;99.90;;;;;;5074070;28;20882;-70
2021/12/08 05:11:13;;;;;;;1.00;0.50;;;3.50;99.90;;;;;;5073861;28;20928;-73
2021/12/08 05:13:41;;;;;;;0.80;0.60;;;3.50;99.90;;;;;;5074944;28;20435;-71
2021/12/08 05:16:10;;;;;;;0.77;0.43;;;3.50;99.90;;;;;;5075189;28;20821;-71
2021/12/08 05:18:40;;;;;;;0.80;0.40;;;3.50;99.90;;;;;;5075617;28;20544;-72
2021/12/08 05:21:14;;;;;;;0.80;0.47;;;3.40;99.90;;;;;;5076199;28;20489;-72
2021/12/08 05:23:43;;;;;;;0.70;0.40;;;3.50;99.90;;;;;;5076648;28;20535;-72
2021/12/08 05:26:16;;;;;;;1.10;0.50;;;3.50;99.90;;;;;;5076650;28;20486;-72
2021/12/08 05:28:45;;;;;;;0.77;0.43;;;3.50;99.90;;;;;;5076981;28;20522;-72
2021/12/08 05:31:19;;;;;;;0.90;0.40;;;3.50;99.90;;;;;;5077157;28;20441;-72
2021/12/08 05:33:47;;;;;;;1.20;0.60;;;3.50;99.90;;;;;;5076871;28;20775;-72
2021/12/08 05:36:15;;;;;;;1.53;0.70;;;3.60;99.90;;;;;;5074366;28;20519;-73
2021/12/08 05:38:46;;;;;;;1.67;0.60;;;3.50;99.90;;;;;;5076818;28;20850;-72
2021/12/08 05:41:17;;;;;;;0.93;0.53;;;3.50;99.90;;;;;;5077143;28;20811;-72
2021/12/08 05:43:46;;;;;;;1.10;0.67;;;3.60;99.90;;;;;;5077156;28;20963;-72
2021/12/08 05:46:19;;;;;;;0.97;0.50;;;3.60;99.90;;;;;;5081706;28;20427;-73
2021/12/08 05:48:49;;;;;;;1.10;0.60;;;3.80;99.90;;;;;;5096677;28;20446;-73
2021/12/08 05:51:18;;;;;;;1.80;0.70;;;3.70;99.90;;;;;;5072728;28;20444;-73
2021/12/08 05:53:48;;;;;;;1.00;0.70;;;3.70;99.90;;;;;;5076063;28;20421;-72
2021/12/08 05:56:17;;;;;;;1.40;0.60;;;3.70;99.90;;;;;;5075299;28;20468;-72
2021/12/08 05:58:45;;;;;;;1.37;0.60;;;3.70;99.90;;;;;;5075115;28;20478;-73
2021/12/08 06:01:17;;;;;;;1.90;0.73;;;3.70;99.90;;;;;;5076848;28;20541;-72
2021/12/08 06:03:47;;;;;;;0.90;0.60;;;3.70;99.90;;;;;;5076500;28;20478;-72
2021/12/08 06:06:16;;;;;;;1.23;0.60;;;3.70;99.90;;;;;;5075907;28;20462;-72
2021/12/08 06:08:43;;;;;;;1.23;0.70;;;3.70;99.90;;;;;;5076468;28;20482;-72
2021/12/08 06:11:12;;;;;;;3.60;0.73;;;3.80;99.90;;;;;;5076599;28;20815;-72
2021/12/08 06:13:42;;;;;;;1.10;0.60;;;3.90;99.90;;;;;;5076752;28;20446;-72
2021/12/08 06:16:12;;;;;;;0.60;0.40;;;3.90;99.90;;;;;;5076741;28;20429;-72
2021/12/08 06:18:44;;;;;;;0.93;0.53;;;3.90;99.90;;;;;;5078258;28;20447;-72
2021/12/08 06:21:13;;;;;;;1.60;0.83;;;4.00;99.90;;;;;;5077279;28;20538;-72
2021/12/08 06:23:42;;;;;;;3.10;0.90;;;4.00;99.90;;;;;;5076165;28;20907;-72
2021/12/08 06:26:13;;;;;;;2.30;0.50;;;4.00;99.90;;;;;;5076297;28;20470;-73
2021/12/08 06:28:40;;;;;;;1.20;0.77;;;4.00;99.90;;;;;;5076499;28;20421;-72
2021/12/08 06:31:13;;;;;;;0.80;0.50;;;4.00;99.90;;;;;;5077054;28;20486;-72
2021/12/08 06:33:42;;;;;;;1.73;0.67;;;4.10;99.90;;;;;;5076317;28;20553;-72
2021/12/08 06:36:13;;;;;;;0.90;0.50;;;4.10;99.90;;;;;;5076201;28;20711;-72
2021/12/08 06:38:41;;;;;;;0.50;0.40;;;4.20;99.90;;;;;;5076284;28;20490;-73
2021/12/08 06:41:12;;;;;;;0.90;0.53;;;4.20;99.90;;;;;;5076361;28;20450;-72
2021/12/08 06:43:42;;;;;;;1.23;0.60;;;4.20;99.90;;;;;;5075986;28;20489;-72
2021/12/08 06:46:09;;;;;;;1.00;0.70;;;4.30;99.90;;;;;;5076024;28;20529;-73
2021/12/08 06:48:43;;;;;;;1.30;0.70;;;4.70;99.90;;;;;;5077400;28;20499;-73
2021/12/08 06:54:00;;;;;;;0.93;0.60;;;4.50;99.90;;;;;;5078012;28;20587;-73
2021/12/08 06:56:31;;;;;;;0.93;0.50;;;4.50;99.90;;;;;;5079335;28;20417;-72
2021/12/08 06:59:08;;;;;;;1.00;0.70;;;4.50;99.90;;;;;;5078666;28;20511;-72
2021/12/08 07:01:51;;;;;;;1.00;0.70;;;4.50;99.90;;;;;;5078422;28;20441;-72
2021/12/08 07:04:31;;;;;;;1.27;0.53;;;4.50;99.90;;;;;;5059416;28;20475;-72
2021/12/08 07:07:08;;;;;;;0.90;0.50;;;4.40;99.90;;;;;;5059049;28;20465;-72
2021/12/08 07:09:39;;;;;;;1.40;0.67;;;4.50;99.90;;;;;;5059470;28;20495;-72
2021/12/08 07:12:10;;;;;;;1.83;0.60;;;4.50;99.90;;;;;;5059267;28;20430;-72
2021/12/08 07:14:39;;;;;;;1.50;0.70;;;4.50;99.90;;;;;;5068988;28;20436;-72
2021/12/08 07:17:10;;;;;;;1.40;0.77;;;4.50;99.90;;;;;;5079220;28;20881;-72
2021/12/08 07:19:45;;;;;;;1.27;0.80;;;4.40;99.90;;;;;;5078991;28;20549;-72
2021/12/08 07:22:17;;;;;;;0.97;0.63;;;4.40;99.90;;;;;;5079145;28;20804;-72
2021/12/08 07:25:01;;;;;;;1.70;0.50;;;4.30;99.90;;;;;;5078691;28;20587;-71
2021/12/08 07:27:35;;;;;;;2.27;0.70;;;4.30;99.90;;;;;;5078786;28;20429;-72
2021/12/08 07:30:07;;;;;;;0.70;0.43;;;4.30;99.90;;;;;;5079515;28;20499;-72
2021/12/08 07:32:38;;;;;;;0.80;0.60;;;4.30;99.90;;;;;;5079346;28;20458;-72
2021/12/08 07:35:10;;;;;;;1.60;0.70;;;4.30;99.90;;;;;;5079122;28;20427;-72
2021/12/08 07:37:39;;;;;;;4.23;0.80;;;4.30;99.90;;;;;;5078634;28;20429;-72
2021/12/08 07:40:10;;;;;;;2.20;0.83;;;4.30;99.90;;;;;;5078459;28;20457;-71
2021/12/08 07:42:39;;;;;;;1.73;0.80;;;4.30;99.90;;;;;;5078292;28;20433;-71
2021/12/08 07:45:16;;;;;;;1.60;0.80;;;4.30;99.90;;;;;;5077271;28;20457;-71
2021/12/08 07:47:43;;;;;;;1.20;0.70;;;4.30;99.90;;;;;;5076979;28;20437;-71
2021/12/08 07:50:17;;;;;;;2.10;0.63;;;4.30;99.90;;;;;;5077322;28;20425;-71
2021/12/08 07:52:48;;;;;;;1.40;0.57;;;4.30;99.90;;;;;;5077770;28;20429;-71
2021/12/08 07:55:19;;;;;;;2.33;0.67;;;4.30;99.90;;;;;;5078179;28;20417;-71
2021/12/08 07:57:47;;;;;;;2.80;0.80;;;4.30;99.90;;;;;;5077766;28;20483;-73
2021/12/08 08:00:19;;;;;;;1.33;0.70;;;4.30;99.90;;;;;;5076681;28;20497;-77
2021/12/08 08:02:47;;;;;;;4.57;1.20;;;4.40;99.90;;;;;;5074384;28;20870;-72
2021/12/08 08:05:22;;;;;;;1.50;0.90;;;4.50;99.90;;;;;;5077062;28;20497;-72
2021/12/08 08:07:51;;;;;;;2.90;1.20;;;4.70;99.90;;;;;;5076715;28;20481;-72
2021/12/08 08:10:23;;;;;;;1.90;0.90;;;4.90;99.90;;;;;;5077043;28;20477;-72
2021/12/08 08:12:57;;;;;;;1.70;0.93;;;4.90;99.90;;;;;;5077431;28;20433;-72
2021/12/08 08:15:26;;;;;;;1.90;1.00;;;4.80;99.90;;;;;;5077403;28;20899;-72
2021/12/08 08:17:55;;;;;;;1.40;0.93;;;4.80;99.90;;;;;;5076946;28;20481;-73
2021/12/08 08:20:25;;;;;;;3.30;1.00;;;4.70;99.90;;;;;;5074744;28;20427;-72
2021/12/08 08:22:54;;;;;;;1.88;1.00;;;4.60;99.90;;;;;;5075857;28;20435;-72
2021/12/08 08:25:25;;;;;;;1.80;0.80;;;4.50;99.90;;;;;;5075131;28;20435;-72
2021/12/08 08:27:52;;;;;;;2.72;1.02;;;4.60;99.90;;;;;;5076378;28;20909;-72
2021/12/08 08:30:25;;;;;;;1.70;0.90;;;4.70;99.90;;;;;;5076483;28;20492;-72
2021/12/08 08:32:56;;;;;;;1.60;1.00;;;4.70;99.90;;;;;;5076995;28;20485;-72
2021/12/08 08:35:28;;;;;;;2.63;0.95;;;4.70;99.90;;;;;;5076385;28;20481;-72
2021/12/08 08:37:58;;;;;;;2.60;1.00;;;4.80;99.90;;;;;;5076602;28;20855;-72
2021/12/08 08:40:29;;;;;;;1.52;0.90;;;5.10;99.90;;;;;;5076166;28;20856;-72
2021/12/08 08:42:57;;;;;;;3.30;1.00;;;5.20;99.90;;;;;;5076725;28;20431;-72
2021/12/08 08:45:31;;;;;;;1.60;0.80;;;5.20;99.90;;;;;;5076769;28;20481;-72
2021/12/08 08:48:06;;;;;;;2.30;0.90;;;5.10;99.90;;;;;;5076308;28;20912;-72
2021/12/08 08:50:43;;;;;;;1.35;0.80;;;5.10;99.90;;;;;;5076386;28;20498;-72
2021/12/08 08:53:12;;;;;;;1.20;0.80;;;5.10;99.90;;;;;;5076176;28;20424;-72
2021/12/08 08:55:52;;;;;;;1.40;0.80;;;5.00;99.90;;;;;;5075857;28;20734;-72
2021/12/08 08:58:38;;;;;;;2.00;0.80;;;4.90;99.90;;;;;;5076155;28;20439;-72
2021/12/08 09:01:19;;;;;;;1.48;0.80;;;4.90;99.90;;;;;;5076998;28;20766;-77
2021/12/08 09:03:51;;;;;;;2.50;0.90;;;4.90;99.90;;;;;;5075579;28;20439;-76
2021/12/08 09:06:49;;;;;;;1.40;0.90;;;5.10;99.90;;;;;;5074790;28;20419;-76
2021/12/08 09:09:25;;;;;;;1.97;0.80;;;5.10;99.90;;;;;;5074846;28;20551;-75
2021/12/08 09:12:00;;;;;;;2.28;0.80;;;5.00;99.90;;;;;;5075436;28;20423;-74
2021/12/08 09:14:36;;;;;;;2.50;1.00;;;5.00;99.90;;;;;;5075985;28;20431;-72
2021/12/08 09:17:10;;;;;;;1.60;0.80;;;5.00;99.90;;;;;;5074782;28;20418;-72
2021/12/08 09:19:44;;;;;;;3.60;0.80;;;5.10;99.90;;;;;;5075590;28;20492;-72
2021/12/08 09:22:14;;;;;;;2.38;0.90;;;5.10;99.90;;;;;;5073893;28;20459;-72
2021/12/08 09:24:48;;;;;;;2.05;0.80;;;5.20;99.90;;;;;;5074467;28;20500;-72
2021/12/08 09:27:23;;;;;;;1.90;0.70;;;5.40;99.90;;;;;;5056858;28;20439;-73
2021/12/08 09:29:58;;;;;;;1.90;0.90;;;5.40;99.90;;;;;;5073653;28;20420;-71
2021/12/08 09:32:32;;;;;;;1.58;0.80;;;5.40;99.90;;;;;;5072932;28;20424;-71
2021/12/08 09:35:07;;;;;;;3.70;0.80;;;5.20;99.90;;;;;;5073503;28;20430;-71
2021/12/08 09:37:39;;;;;;;1.38;0.88;;;5.00;99.90;;;;;;5074167;28;20419;-73
2021/12/08 09:40:15;;;;;;;1.90;0.90;;;5.00;99.90;;;;;;5055944;28;20495;-73
2021/12/08 09:42:50;;;;;;;1.50;0.90;;;4.90;99.90;;;;;;5073424;28;20500;-72
2021/12/08 09:45:27;;;;;;;1.30;0.80;;;4.90;99.90;;;;;;5074291;28;20516;-73
2021/12/08 09:47:54;;;;;;;1.40;0.90;;;4.90;99.90;;;;;;5073418;28;20435;-73
2021/12/08 09:50:24;;;;;;;1.17;0.80;;;4.90;99.90;;;;;;5072626;28;20795;-73
2021/12/08 09:52:51;;;;;;;1.35;0.80;;;4.80;99.90;;;;;;5073113;28;20427;-73
2021/12/08 09:55:19;;;;;;;1.20;0.70;;;5.10;99.90;;;;;;5073789;28;20477;-73
2021/12/08 09:57:47;;;;;;;1.35;0.80;;;5.10;99.90;;;;;;5073760;28;20439;-73
2021/12/08 10:00:24;;;;;;;1.30;0.70;;;5.10;99.90;;;;;;5073039;28;20735;-72
2021/12/08 10:02:58;;;;;;;1.42;0.90;;;5.20;99.90;;;;;;5073349;28;20517;-73
2021/12/08 10:05:27;;;;;;;1.10;0.80;;;5.20;99.90;;;;;;5073310;28;20470;-73
2021/12/08 10:07:54;;;;;;;1.13;0.85;;;5.10;99.90;;;;;;5072742;28;20420;-71
2021/12/08 10:10:24;;;;;;;1.67;0.80;;;5.20;99.90;;;;;;5073521;28;20680;-72
2021/12/08 10:12:51;;;;;;;1.80;0.70;;;5.20;99.90;;;;;;5072891;28;20701;-72
2021/12/08 10:15:21;;;;;;;1.10;0.67;;;5.20;99.90;;;;;;5072217;28;20423;-73
2021/12/08 10:17:48;;;;;;;1.45;0.70;;;5.20;99.90;;;;;;5072453;28;20458;-73
2021/12/08 10:20:20;;;;;;;1.40;0.90;;;5.20;99.90;;;;;;5071857;28;20462;-73
2021/12/08 10:23:11;;;;;;;1.10;0.80;;;5.20;99.90;;;;;;5071452;28;20412;-72
2021/12/08 10:25:48;;;;;;;1.10;0.70;;;5.10;99.90;;;;;;5074676;28;20433;-73
2021/12/08 10:28:18;;;;;;;1.40;0.70;;;5.10;99.90;;;;;;5075675;28;20466;-72
2021/12/08 10:30:48;;;;;;;1.40;0.80;;;5.10;99.90;;;;;;5076262;28;20790;-72
2021/12/08 10:33:49;;;;;;;1.00;0.60;;;5.10;99.90;;;;;;5074250;28;20427;-72
2021/12/08 10:36:35;;;;;;;1.40;0.70;;;5.40;99.90;;;;;;5075432;28;20477;-73
2021/12/08 10:39:13;;;;;;;1.50;0.70;;;5.50;99.90;;;;;;5077503;28;20836;-73
2021/12/08 10:42:02;;;;;;;1.50;0.68;;;5.70;99.90;;;;;;5077237;28;20455;-72
2021/12/08 10:44:41;;;;;;;1.10;0.70;;;5.90;99.90;;;;;;5079518;28;20432;-72
2021/12/08 10:47:09;;;;;;;1.30;0.70;;;6.00;99.90;;;;;;5077480;28;20443;-71
2021/12/08 10:55:24;;;;;;;1.10;0.70;;;6.20;99.90;;;;;;5075155;28;20511;-71
2021/12/08 10:57:59;;;;;;;1.50;0.70;;;6.00;99.90;;;;;;5076046;28;20466;-71
2021/12/08 11:00:29;;;;;;;1.20;0.70;;;5.80;99.90;;;;;;5075837;28;20469;-71
2021/12/08 11:03:00;;;;;;;1.00;0.70;;;5.60;99.90;;;;;;5072696;28;20561;-70
2021/12/08 11:06:04;;;;;;;2.22;0.70;;;5.50;99.90;;;;;;5073279;28;20455;-71
2021/12/08 11:08:34;;;;;;;2.20;0.70;;;5.40;99.90;;;;;;5073485;28;20514;-71
2021/12/08 11:11:07;;;;;;;1.42;0.80;;;5.40;99.90;;;;;;5073775;28;20893;-71
2021/12/08 11:13:39;;;;;;;2.08;0.65;;;5.50;99.90;;;;;;5074528;28;20843;-71
2021/12/08 11:16:13;;;;;;;1.00;0.70;;;5.50;99.90;;;;;;5076506;28;20777;-72
2021/12/08 11:18:41;;;;;;;1.58;0.90;;;5.60;99.90;;;;;;5075932;28;20437;-71
2021/12/08 11:21:19;;;;;;;1.00;0.60;;;5.70;99.90;;;;;;5075440;28;20786;-71
2021/12/08 11:23:49;;;;;;;1.50;0.80;;;5.70;99.90;;;;;;5075803;28;20474;-72
2021/12/08 11:26:23;;;;;;;1.50;0.80;;;5.70;99.90;;;;;;5076725;28;20855;-72
2021/12/08 11:29:01;;;;;;;1.70;0.70;;;5.70;99.90;;;;;;5076453;28;20420;-72
2021/12/08 11:31:31;;;;;;;1.50;0.60;;;5.70;99.90;;;;;;5076995;28;20423;-72
2021/12/08 11:34:04;;;;;;;1.42;0.70;;;5.60;99.90;;;;;;5077464;28;20459;-71
2021/12/08 11:36:35;;;;;;;1.08;0.50;;;5.60;99.90;;;;;;5077063;28;20420;-71
2021/12/08 11:39:15;;;;;;;3.47;0.65;;;5.60;99.90;;;;;;5067125;28;20847;-71
2021/12/08 11:41:44;;;;;;;2.38;0.70;;;5.80;99.90;;;;;;5058421;28;20475;-72
2021/12/08 11:44:16;;;;;;;1.40;0.70;;;6.00;99.90;;;;;;5064859;28;20434;-73
2021/12/08 11:46:47;;;;;;;0.95;0.60;;;6.30;99.90;;;;;;5071962;28;20845;-71
2021/12/08 11:49:16;;;;;;;1.25;0.70;;;6.30;99.90;;;;;;5074578;28;20841;-71
2021/12/08 11:52:01;;;;;;;4.43;1.20;;;6.30;99.90;;;;;;5075845;28;20422;-71
2021/12/08 11:54:35;;;;;;;2.27;1.20;;;6.10;99.90;;;;;;5066060;28;20433;-71
2021/12/08 11:57:18;;;;;;;2.97;0.82;;;6.00;99.90;;;;;;5073910;28;20505;-72
2021/12/08 11:59:57;;;;;;;1.37;0.70;;;6.00;99.90;;;;;;5076456;28;20424;-71
2021/12/08 12:02:26;;;;;;;1.53;0.60;;;6.10;99.90;;;;;;5075232;28;20443;-71
2021/12/08 12:04:56;;;;;;;2.63;0.75;;;6.10;99.90;;;;;;5076540;28;20538;-71
2021/12/08 12:07:36;;;;;;;1.13;0.70;;;6.10;99.90;;;;;;5076285;28;20723;-71
2021/12/08 12:10:15;;;;;;;1.20;0.60;;;6.10;99.90;;;;;;5077070;28;20419;-72
2021/12/08 12:12:42;;;;;;;0.95;0.63;;;6.30;99.90;;;;;;5076733;28;20493;-71
2021/12/08 12:15:20;;;;;;;1.30;0.70;;;6.50;99.90;;;;;;5076462;28;20404;-71
2021/12/08 12:17:49;;;;;;;2.20;0.70;;;6.50;99.90;;;;;;5076920;28;20762;-71
2021/12/08 12:20:25;;;;;;;0.90;0.50;;;6.50;99.90;;;;;;5075926;28;20423;-72
2021/12/08 12:23:20;;;;;;;0.90;0.60;;;6.80;99.90;;;;;;5073865;28;20436;-70
2021/12/08 12:26:13;;;;;;;4.30;0.80;;;7.00;99.90;;;;;;5054305;28;20457;-71
2021/12/08 12:29:02;;;;;;;1.73;0.50;;;6.90;99.90;;;;;;5051284;28;20555;-72
2021/12/08 12:31:40;;;;;;;1.05;0.60;;;6.80;99.90;;;;;;5037507;28;20512;-72
2021/12/08 12:34:26;;;;;;;1.00;0.70;;;6.60;99.90;;;;;;5045919;28;20428;-73
2021/12/08 12:36:56;;;;;;;1.08;0.70;;;6.40;99.90;;;;;;5056124;28;20847;-73
2021/12/08 12:39:27;;;;;;;1.60;0.70;;;6.30;99.90;;;;;;5055952;28;20418;-73
2021/12/08 12:42:15;;;;;;;1.50;0.70;;;6.20;99.90;;;;;;5056636;28;20448;-73
2021/12/08 12:44:45;;;;;;;2.15;0.70;;;6.30;99.90;;;;;;5053768;28;20429;-72
2021/12/08 12:47:26;;;;;;;1.10;0.80;;;6.40;99.90;;;;;;5069738;28;21018;-73
2021/12/08 12:50:21;;;;;;;1.50;0.65;;;6.40;99.90;;;;;;5063303;28;20541;-71
2021/12/08 12:53:11;;;;;;;1.58;0.70;;;7.10;99.90;;;;;;5074225;28;20744;-71
2021/12/08 12:55:50;;;;;;;1.30;0.70;;;7.20;99.90;;;;;;5056165;28;20431;-73
2021/12/08 12:58:18;;;;;;;1.70;1.00;;;7.30;99.90;;;;;;5073292;28;20502;-71
2021/12/08 13:01:07;;;;;;;1.40;0.80;;;7.10;99.90;;;;;;5071016;28;20922;-70
2021/12/08 13:03:48;;;;;;;0.83;0.50;;;6.80;99.90;;;;;;5072344;28;20193;-73
2021/12/08 13:06:16;;;;;;;1.43;0.70;;;6.70;99.90;;;;;;5065035;28;20478;-71
2021/12/08 13:08:54;;;;;;;0.90;0.60;;;6.70;99.90;;;;;;5071243;28;20898;-71
2021/12/08 13:11:46;;;;;;;1.67;0.53;;;6.80;99.90;;;;;;5059450;28;20445;-71
2021/12/08 13:14:31;;;;;;;0.70;0.50;;;7.10;99.90;;;;;;5072274;28;20459;-71
2021/12/08 13:17:17;;;;;;;0.87;0.60;;;7.20;99.90;;;;;;5074782;28;20439;-70
2021/12/08 13:19:53;;;;;;;1.80;0.60;;;7.20;99.90;;;;;;5069535;28;20452;-71
2021/12/08 13:22:52;;;;;;;2.30;0.70;;;7.20;99.90;;;;;;5070776;28;20853;-71
2021/12/08 13:25:31;;;;;;;1.70;0.53;;;7.10;99.90;;;;;;5071681;28;20540;-71
2021/12/08 13:28:16;;;;;;;2.00;0.70;;;7.00;99.90;;;;;;5072647;28;20724;-71
2021/12/08 13:30:45;;;;;;;0.80;0.50;;;7.00;99.90;;;;;;5073780;28;20553;-71
2021/12/08 13:33:33;;;;;;;0.83;0.50;;;6.90;99.90;;;;;;5071045;28;20522;-72
2021/12/08 13:36:23;;;;;;;0.90;0.60;;;6.80;99.90;;;;;;5097422;22;20475;-57
2021/12/08 13:39:11;;;;;;;1.20;0.70;;;6.50;99.90;;;;;;5054754;28;20488;-57
2021/12/08 13:41:57;;;;;;;1.00;0.63;;;6.40;99.90;;;;;;5052118;28;20459;-56
2021/12/08 13:44:27;;;;;;;1.07;0.63;;;6.20;99.90;;;;;;5043395;28;20443;-54
2021/12/08 13:49:26;;;;;;;1.10;0.80;;;6.00;99.90;;;;;;5046645;22;20480;-72
2021/12/08 13:52:19;;;;;;;1.60;0.70;;;5.90;99.90;;;;;;5042817;28;20221;-71
2021/12/08 13:54:48;;;;;;;1.10;0.70;;;5.80;99.90;;;;;;5037097;22;20891;-58
2021/12/08 13:57:31;;;;;;;1.47;0.70;;;5.70;99.90;;;;;;5029536;28;20479;-58
2021/12/08 14:00:00;;;;;;;0.90;0.63;;;5.60;99.90;;;;;;5032312;28;20526;-58